New Jersey Responder — WBO8578 — position and weather

sailwx.info

Track history (hours):
 
Tides and Currents Weather Stations Pressure Air Temp Water Temp Dewpoint Dewpoint Depression Visibility Wind Speed Wind Dir Waves Ship Positions

New Jersey Responder

Owner: MARINE SPILL RESPONSE CORP, HERNDON, VA. More information available from US FCC via Universal Licensing System and Coast Guard Vessel Documentation Center.

Last reported at 2014-Oct-20 22:05 UTC. Time now 2014-Oct-21 02:19 UTC.
Position N 40°32' W 074°15'.

; draft 4 m.

Type: Pollution control. MMSI: 366594000.

Date/timePositionNaut miles runAvg speedWind from/ knotsBaromVisibWave heightAir tempDewpointWater temp
2014-Oct-20 22:05N 40°32' W 074°15'0 0.0
2014-Oct-20 13:08N 40°32' W 074°15'0 0.0
2014-Oct-20 03:26N 40°32' W 074°15'0 0.0
2014-Oct-18 00:26N 40°32' W 074°15'0 0.0
2014-Oct-17 23:26N 40°32' W 074°15'0 0.0
2014-Oct-16 23:05N 40°32' W 074°15'0 0.0
2014-Oct-16 00:32N 40°32' W 074°15'0 0.0
2014-Oct-15 21:23N 40°32' W 074°15'0 0.0
2014-Oct-15 20:14N 40°32' W 074°15'0 0.0
2014-Oct-15 19:32N 40°32' W 074°15'0 0.0
2014-Oct-15 18:33N 40°32' W 074°15'7 5.2
2014-Oct-15 17:16N 40°30' W 074°07'1 1.1
2014-Oct-15 16:25N 40°30' W 074°05'1 1.1
2014-Oct-15 15:33N 40°30' W 074°07'1 1.0
2014-Oct-15 14:28N 40°30' W 074°08'0 0.3
2014-Oct-15 13:33N 40°30' W 074°08'5 5.0
2014-Oct-15 12:32N 40°29' W 074°15'2 2.5
2014-Oct-15 11:33N 40°32' W 074°15'0 0.0
2014-Oct-15 10:34N 40°32' W 074°15'0 0.0
2014-Oct-15 09:34N 40°32' W 074°15'0 0.0
2014-Oct-15 08:33N 40°32' W 074°15'0 0.0
2014-Oct-15 07:33N 40°32' W 074°15'0 0.0
2014-Oct-15 06:34N 40°32' W 074°15'0 0.0
2014-Oct-15 05:33N 40°32' W 074°15'0 0.0
2014-Oct-15 04:33N 40°32' W 074°15'0 0.0
2014-Oct-15 03:33N 40°32' W 074°15'0 0.0
2014-Oct-15 02:32N 40°32' W 074°15'0 0.0
2014-Oct-15 01:34N 40°32' W 074°15'0 0.0
2014-Oct-15 00:33N 40°32' W 074°15'0 0.0
2014-Oct-14 23:33N 40°32' W 074°15'0 0.0
2014-Oct-14 22:33N 40°32' W 074°15'0 0.0
2014-Oct-14 21:33N 40°32' W 074°15'0 0.0
2014-Oct-14 20:33N 40°32' W 074°15'0 0.0
2014-Oct-14 19:31N 40°32' W 074°15'0 0.0
2014-Oct-14 18:33N 40°32' W 074°15'0 0.0
2014-Oct-14 17:32N 40°32' W 074°15'0 0.0
2014-Oct-14 16:33N 40°32' W 074°15'0 0.0
2014-Oct-14 15:34N 40°32' W 074°15'0 0.0
2014-Oct-14 14:32N 40°32' W 074°15'0 0.0
2014-Oct-14 13:32N 40°32' W 074°15'0 0.0
2014-Oct-14 12:34N 40°32' W 074°15'0 0.0
2014-Oct-14 11:33N 40°32' W 074°15'0 0.0
2014-Oct-14 10:33N 40°32' W 074°15'0 0.0
2014-Oct-14 09:33N 40°32' W 074°15'0 0.0
2014-Oct-14 08:32N 40°32' W 074°15'0 0.0
2014-Oct-14 07:32N 40°32' W 074°15'0 0.0
2014-Oct-14 06:29N 40°32' W 074°15'0 0.0
2014-Oct-14 05:24N 40°32' W 074°15'0 0.0
2014-Oct-14 03:19N 40°32' W 074°15'0 0.0
2014-Oct-14 01:28N 40°32' W 074°15'0 0.0
2014-Oct-14 00:13N 40°32' W 074°15'0 0.0
2014-Oct-13 23:04N 40°32' W 074°15'0 0.0
2014-Oct-13 22:32N 40°32' W 074°15'0 0.0
2014-Oct-13 21:33N 40°32' W 074°15'0 0.0
2014-Oct-13 19:24N 40°32' W 074°15'0 0.0
2014-Oct-13 16:33N 40°32' W 074°15'0 0.0
2014-Oct-13 15:22N 40°32' W 074°15'0 0.0
2014-Oct-13 14:33N 40°32' W 074°15'0 0.0
2014-Oct-13 13:31N 40°32' W 074°15'0 0.0
2014-Oct-13 12:32N 40°32' W 074°15'0 0.0
2014-Oct-13 11:33N 40°32' W 074°15'0 0.0
2014-Oct-13 10:33N 40°32' W 074°15'0 0.0
2014-Oct-13 09:33N 40°32' W 074°15'0 0.0
2014-Oct-13 08:33N 40°32' W 074°15'0 0.0
2014-Oct-13 07:34N 40°32' W 074°15'0 0.0
2014-Oct-13 06:34N 40°32' W 074°15'0 0.0
2014-Oct-13 05:28N 40°32' W 074°15'0 0.0
2014-Oct-13 04:32N 40°32' W 074°15'0 0.0
2014-Oct-13 03:28N 40°32' W 074°15'0 0.0
2014-Oct-13 01:11N 40°32' W 074°15'0 0.0
2014-Oct-13 00:31N 40°32' W 074°15'0 0.0
2014-Oct-12 23:17N 40°32' W 074°15'0 0.0
2014-Oct-12 22:14N 40°32' W 074°15'0 0.0
2014-Oct-12 21:27N 40°32' W 074°15'0 0.0
2014-Oct-12 19:11N 40°32' W 074°15'0 0.0
2014-Oct-12 18:13N 40°32' W 074°15'0 0.0
2014-Oct-12 17:19N 40°32' W 074°15'0 0.0
2014-Oct-12 16:20N 40°32' W 074°15'0 0.0
2014-Oct-12 15:12N 40°32' W 074°15'0 0.0
2014-Oct-12 14:32N 40°32' W 074°15'0 0.0
2014-Oct-12 12:33N 40°32' W 074°15'0 0.0
2014-Oct-12 11:32N 40°32' W 074°15'0 0.0
2014-Oct-12 09:22N 40°32' W 074°15'0 0.0
2014-Oct-12 08:32N 40°32' W 074°15'0 0.0
2014-Oct-12 07:22N 40°32' W 074°15'0 0.0
2014-Oct-12 06:19N 40°32' W 074°15'0 0.0
2014-Oct-12 05:30N 40°32' W 074°15'0 0.0
2014-Oct-12 04:05N 40°32' W 074°15'0 0.0
2014-Oct-12 03:30N 40°32' W 074°15'0 0.0
2014-Oct-12 02:28N 40°32' W 074°15'0 0.0
2014-Oct-12 01:32N 40°32' W 074°15'0 0.0
2014-Oct-12 00:31N 40°32' W 074°15'0 0.0
2014-Oct-11 23:32N 40°32' W 074°15'0 0.0
2014-Oct-11 22:32N 40°32' W 074°15'0 0.0
2014-Oct-11 21:29N 40°32' W 074°15'0 0.0
2014-Oct-11 20:25N 40°32' W 074°15'0 0.0
2014-Oct-11 19:24N 40°32' W 074°15'0 0.0
2014-Oct-11 17:18N 40°32' W 074°15'0 0.0
2014-Oct-11 14:25N 40°32' W 074°15'0 0.0
2014-Oct-11 05:31N 40°32' W 074°15'0 0.0
2014-Oct-11 04:24N 40°32' W 074°15'0 0.0
2014-Oct-11 03:09N 40°32' W 074°15'0 0.0
2014-Oct-11 02:21N 40°32' W 074°15'0 0.0
2014-Oct-11 01:20N 40°32' W 074°15'0 0.0
2014-Oct-11 00:31N 40°32' W 074°15'0 0.0
2014-Oct-10 23:30N 40°32' W 074°15'0 0.0
2014-Oct-10 22:31N 40°32' W 074°15'  
Track history (hours):
 
Tides and Currents Weather Stations Pressure Air Temp Water Temp Dewpoint Dewpoint Depression Visibility Wind Speed Wind Dir Waves Ship Positions

New Jersey Responder

Owner: MARINE SPILL RESPONSE CORP, HERNDON, VA. More information available from US FCC via Universal Licensing System and Coast Guard Vessel Documentation Center.

Last reported at 2014-Oct-20 22:05 UTC. Time now 2014-Oct-21 02:19 UTC.
Position N 40°32' W 074°15'.

; draft 4 m.

Type: Pollution control. MMSI: 366594000.

Date/timePositionNaut miles runAvg speedWind from/ knotsBaromVisibWave heightAir tempDewpointWater temp
2014-Oct-20 22:05N 40°32' W 074°15'0 0.0
2014-Oct-20 13:08N 40°32' W 074°15'0 0.0
2014-Oct-20 03:26N 40°32' W 074°15'0 0.0
2014-Oct-18 00:26N 40°32' W 074°15'0 0.0
2014-Oct-17 23:26N 40°32' W 074°15'0 0.0
2014-Oct-16 23:05N 40°32' W 074°15'0 0.0
2014-Oct-16 00:32N 40°32' W 074°15'0 0.0
2014-Oct-15 21:23N 40°32' W 074°15'0 0.0
2014-Oct-15 20:14N 40°32' W 074°15'0 0.0
2014-Oct-15 19:32N 40°32' W 074°15'0 0.0
2014-Oct-15 18:33N 40°32' W 074°15'7 5.2
2014-Oct-15 17:16N 40°30' W 074°07'1 1.1
2014-Oct-15 16:25N 40°30' W 074°05'1 1.1
2014-Oct-15 15:33N 40°30' W 074°07'1 1.0
2014-Oct-15 14:28N 40°30' W 074°08'0 0.3
2014-Oct-15 13:33N 40°30' W 074°08'5 5.0
2014-Oct-15 12:32N 40°29' W 074°15'2 2.5
2014-Oct-15 11:33N 40°32' W 074°15'0 0.0
2014-Oct-15 10:34N 40°32' W 074°15'0 0.0
2014-Oct-15 09:34N 40°32' W 074°15'0 0.0
2014-Oct-15 08:33N 40°32' W 074°15'0 0.0
2014-Oct-15 07:33N 40°32' W 074°15'0 0.0
2014-Oct-15 06:34N 40°32' W 074°15'0 0.0
2014-Oct-15 05:33N 40°32' W 074°15'0 0.0
2014-Oct-15 04:33N 40°32' W 074°15'0 0.0
2014-Oct-15 03:33N 40°32' W 074°15'0 0.0
2014-Oct-15 02:32N 40°32' W 074°15'0 0.0
2014-Oct-15 01:34N 40°32' W 074°15'0 0.0
2014-Oct-15 00:33N 40°32' W 074°15'0 0.0
2014-Oct-14 23:33N 40°32' W 074°15'0 0.0
2014-Oct-14 22:33N 40°32' W 074°15'0 0.0
2014-Oct-14 21:33N 40°32' W 074°15'0 0.0
2014-Oct-14 20:33N 40°32' W 074°15'0 0.0
2014-Oct-14 19:31N 40°32' W 074°15'0 0.0
2014-Oct-14 18:33N 40°32' W 074°15'0 0.0
2014-Oct-14 17:32N 40°32' W 074°15'0 0.0
2014-Oct-14 16:33N 40°32' W 074°15'0 0.0
2014-Oct-14 15:34N 40°32' W 074°15'0 0.0
2014-Oct-14 14:32N 40°32' W 074°15'0 0.0
2014-Oct-14 13:32N 40°32' W 074°15'0 0.0
2014-Oct-14 12:34N 40°32' W 074°15'0 0.0
2014-Oct-14 11:33N 40°32' W 074°15'0 0.0
2014-Oct-14 10:33N 40°32' W 074°15'0 0.0
2014-Oct-14 09:33N 40°32' W 074°15'0 0.0
2014-Oct-14 08:32N 40°32' W 074°15'0 0.0
2014-Oct-14 07:32N 40°32' W 074°15'0 0.0
2014-Oct-14 06:29N 40°32' W 074°15'0 0.0
2014-Oct-14 05:24N 40°32' W 074°15'0 0.0
2014-Oct-14 03:19N 40°32' W 074°15'0 0.0
2014-Oct-14 01:28N 40°32' W 074°15'0 0.0
2014-Oct-14 00:13N 40°32' W 074°15'0 0.0
2014-Oct-13 23:04N 40°32' W 074°15'0 0.0
2014-Oct-13 22:32N 40°32' W 074°15'0 0.0
2014-Oct-13 21:33N 40°32' W 074°15'0 0.0
2014-Oct-13 19:24N 40°32' W 074°15'0 0.0
2014-Oct-13 16:33N 40°32' W 074°15'0 0.0
2014-Oct-13 15:22N 40°32' W 074°15'0 0.0
2014-Oct-13 14:33N 40°32' W 074°15'0 0.0
2014-Oct-13 13:31N 40°32' W 074°15'0 0.0
2014-Oct-13 12:32N 40°32' W 074°15'0 0.0
2014-Oct-13 11:33N 40°32' W 074°15'0 0.0
2014-Oct-13 10:33N 40°32' W 074°15'0 0.0
2014-Oct-13 09:33N 40°32' W 074°15'0 0.0
2014-Oct-13 08:33N 40°32' W 074°15'0 0.0
2014-Oct-13 07:34N 40°32' W 074°15'0 0.0
2014-Oct-13 06:34N 40°32' W 074°15'0 0.0
2014-Oct-13 05:28N 40°32' W 074°15'0 0.0
2014-Oct-13 04:32N 40°32' W 074°15'0 0.0
2014-Oct-13 03:28N 40°32' W 074°15'0 0.0
2014-Oct-13 01:11N 40°32' W 074°15'0 0.0
2014-Oct-13 00:31N 40°32' W 074°15'0 0.0
2014-Oct-12 23:17N 40°32' W 074°15'0 0.0
2014-Oct-12 22:14N 40°32' W 074°15'0 0.0
2014-Oct-12 21:27N 40°32' W 074°15'0 0.0
2014-Oct-12 19:11N 40°32' W 074°15'0 0.0
2014-Oct-12 18:13N 40°32' W 074°15'0 0.0
2014-Oct-12 17:19N 40°32' W 074°15'0 0.0
2014-Oct-12 16:20N 40°32' W 074°15'0 0.0
2014-Oct-12 15:12N 40°32' W 074°15'0 0.0
2014-Oct-12 14:32N 40°32' W 074°15'0 0.0
2014-Oct-12 12:33N 40°32' W 074°15'0 0.0
2014-Oct-12 11:32N 40°32' W 074°15'0 0.0
2014-Oct-12 09:22N 40°32' W 074°15'0 0.0
2014-Oct-12 08:32N 40°32' W 074°15'0 0.0
2014-Oct-12 07:22N 40°32' W 074°15'0 0.0
2014-Oct-12 06:19N 40°32' W 074°15'0 0.0
2014-Oct-12 05:30N 40°32' W 074°15'0 0.0
2014-Oct-12 04:05N 40°32' W 074°15'0 0.0
2014-Oct-12 03:30N 40°32' W 074°15'0 0.0
2014-Oct-12 02:28N 40°32' W 074°15'0 0.0
2014-Oct-12 01:32N 40°32' W 074°15'0 0.0
2014-Oct-12 00:31N 40°32' W 074°15'0 0.0
2014-Oct-11 23:32N 40°32' W 074°15'0 0.0
2014-Oct-11 22:32N 40°32' W 074°15'0 0.0
2014-Oct-11 21:29N 40°32' W 074°15'0 0.0
2014-Oct-11 20:25N 40°32' W 074°15'0 0.0
2014-Oct-11 19:24N 40°32' W 074°15'0 0.0
2014-Oct-11 17:18N 40°32' W 074°15'0 0.0
2014-Oct-11 14:25N 40°32' W 074°15'0 0.0
2014-Oct-11 05:31N 40°32' W 074°15'0 0.0
2014-Oct-11 04:24N 40°32' W 074°15'0 0.0
2014-Oct-11 03:09N 40°32' W 074°15'0 0.0
2014-Oct-11 02:21N 40°32' W 074°15'0 0.0
2014-Oct-11 01:20N 40°32' W 074°15'0 0.0
2014-Oct-11 00:31N 40°32' W 074°15'0 0.0
2014-Oct-10 23:30N 40°32' W 074°15'0 0.0
2014-Oct-10 22:31N 40°32' W 074°15'  

Dump ship's entire track history